createdAt,value
2022-08-25T00:01:57.277Z,4.90
2022-08-25T00:04:24.631Z,5.22
2022-08-25T00:06:52.826Z,4.90
2022-08-25T00:09:23.939Z,5.38
2022-08-25T00:11:51.787Z,4.60
2022-08-25T00:14:23.732Z,5.28
2022-08-25T00:16:50.472Z,5.20
2022-08-25T00:19:22.006Z,5.13
2022-08-25T00:21:48.509Z,6.13
2022-08-25T00:24:17.404Z,5.18
2022-08-25T00:26:48.814Z,5.75
2022-08-25T00:29:15.775Z,6.03
2022-08-25T00:31:42.897Z,5.57
2022-08-25T00:34:14.718Z,4.60
2022-08-25T00:36:41.486Z,5.10
2022-08-25T00:39:09.074Z,5.15
2022-08-25T00:41:36.686Z,5.22
2022-08-25T00:44:06.518Z,4.83
2022-08-25T00:46:47.243Z,5.22
2022-08-25T00:49:25.391Z,4.88
2022-08-25T00:52:08.923Z,5.47
2022-08-25T00:54:40.885Z,6.05
2022-08-25T00:57:10.025Z,6.17
2022-08-25T00:59:36.898Z,6.45
2022-08-25T01:02:05.890Z,6.18
2022-08-25T01:04:34.667Z,6.50
2022-08-25T01:07:02.175Z,5.90
2022-08-25T01:09:34.226Z,5.27
2022-08-25T01:12:01.128Z,4.95
2022-08-25T01:14:31.331Z,4.72
2022-08-25T01:16:59.182Z,6.20
2022-08-25T01:19:28.645Z,5.30
2022-08-25T01:21:55.016Z,6.17
2022-08-25T01:24:44.399Z,5.88
2022-08-25T01:27:11.412Z,6.90
2022-08-25T01:29:38.894Z,6.00
2022-08-25T01:32:08.927Z,6.00
2022-08-25T01:34:38.375Z,5.67
2022-08-25T01:37:04.974Z,5.45
2022-08-25T01:39:33.930Z,5.35
2022-08-25T01:42:19.335Z,5.60
2022-08-25T01:44:47.542Z,4.75
2022-08-25T01:47:14.930Z,5.40
2022-08-25T01:49:41.381Z,6.15
2022-08-25T01:52:11.659Z,5.72
2022-08-25T01:54:38.350Z,6.43
2022-08-25T01:57:05.488Z,5.53
2022-08-25T01:59:32.002Z,5.80
2022-08-25T02:01:59.816Z,5.93
2022-08-25T02:04:32.368Z,6.45
2022-08-25T02:07:00.116Z,5.82
2022-08-25T02:09:26.486Z,5.93
2022-08-25T02:11:52.849Z,5.90
2022-08-25T02:14:19.821Z,7.05
2022-08-25T02:16:48.835Z,6.00
2022-08-25T02:19:17.001Z,6.65
2022-08-25T02:21:43.615Z,6.97
2022-08-25T02:24:11.855Z,6.00
2022-08-25T02:26:38.951Z,7.03
2022-08-25T02:29:07.403Z,6.88
2022-08-25T02:31:34.279Z,6.80
2022-08-25T02:34:01.995Z,6.88
2022-08-25T02:36:29.473Z,6.97
2022-08-25T02:38:55.858Z,6.93
2022-08-25T02:41:30.967Z,6.00
2022-08-25T02:43:57.964Z,7.05
2022-08-25T02:46:25.031Z,7.07
2022-08-25T02:48:52.887Z,7.70
2022-08-25T02:51:21.960Z,7.07
2022-08-25T02:53:48.336Z,6.43
2022-08-25T02:56:16.668Z,6.82
2022-08-25T02:58:43.222Z,6.85
2022-08-25T03:01:13.294Z,7.13
2022-08-25T03:03:41.686Z,6.53
2022-08-25T03:06:12.526Z,7.85
2022-08-25T03:08:39.463Z,6.90
2022-08-25T03:11:06.530Z,6.97
2022-08-25T03:13:33.367Z,7.60
2022-08-25T03:16:00.769Z,7.03
2022-08-25T03:18:27.503Z,6.45
2022-08-25T03:20:54.808Z,6.57
2022-08-25T03:23:21.256Z,6.63
2022-08-25T03:26:06.043Z,6.27
2022-08-25T03:28:33.131Z,6.32
2022-08-25T03:31:00.807Z,5.80
2022-08-25T03:33:29.087Z,6.32
2022-08-25T03:35:56.318Z,5.80
2022-08-25T03:38:25.281Z,6.07
2022-08-25T03:40:52.307Z,5.75
2022-08-25T03:43:19.283Z,5.78
2022-08-25T03:45:47.671Z,5.40
2022-08-25T03:48:16.744Z,5.72
2022-08-25T03:50:51.955Z,5.33
2022-08-25T03:53:19.527Z,5.90
2022-08-25T03:55:46.122Z,5.15
2022-08-25T03:58:12.614Z,5.10
2022-08-25T04:00:39.201Z,5.45
2022-08-25T04:03:06.116Z,5.43
2022-08-25T04:05:33.006Z,5.22
2022-08-25T04:08:01.626Z,5.05
2022-08-25T04:10:28.610Z,4.20
2022-08-25T04:12:55.890Z,4.55
2022-08-25T04:15:22.298Z,4.90
2022-08-25T04:17:48.702Z,4.93
2022-08-25T04:20:18.883Z,4.65
2022-08-25T04:22:45.635Z,4.63
2022-08-25T04:25:12.900Z,4.20
2022-08-25T04:27:39.723Z,4.77
2022-08-25T04:30:06.899Z,4.43
2022-08-25T04:32:35.166Z,4.20
2022-08-25T04:35:01.583Z,4.50
2022-08-25T04:37:27.984Z,4.90
2022-08-25T04:39:54.390Z,5.20
2022-08-25T04:42:21.616Z,5.20
2022-08-25T04:44:48.651Z,5.05
2022-08-25T04:47:15.020Z,5.28
2022-08-25T04:49:41.506Z,5.05
2022-08-25T04:52:14.374Z,5.03
2022-08-25T04:54:41.234Z,5.35
2022-08-25T04:57:07.606Z,5.25
2022-08-25T04:59:34.262Z,4.70
2022-08-25T05:02:03.026Z,5.60
2022-08-25T05:04:29.727Z,5.07
2022-08-25T05:06:57.212Z,4.43
2022-08-25T05:09:23.831Z,4.45
2022-08-25T05:11:51.958Z,4.45
2022-08-25T05:14:21.600Z,4.40
2022-08-25T05:16:52.058Z,4.13
2022-08-25T05:19:18.641Z,4.13
2022-08-25T05:21:45.043Z,3.90
2022-08-25T05:24:11.419Z,4.18
2022-08-25T05:26:38.307Z,4.00
2022-08-25T05:29:05.586Z,4.27
2022-08-25T05:31:32.936Z,4.40
2022-08-25T05:34:00.338Z,4.20
2022-08-25T05:36:28.009Z,3.70
2022-08-25T05:38:54.468Z,3.42
2022-08-25T05:41:25.361Z,3.80
2022-08-25T05:43:52.108Z,3.97
2022-08-25T05:46:20.017Z,3.90
2022-08-25T05:48:46.803Z,3.47
2022-08-25T05:51:14.901Z,3.47
2022-08-25T05:53:44.060Z,3.20
2022-08-25T05:56:11.170Z,3.78
2022-08-25T05:58:37.973Z,3.63
2022-08-25T06:01:24.076Z,3.97
2022-08-25T06:03:54.564Z,3.90
2022-08-25T06:06:25.983Z,3.73
2022-08-25T06:08:52.354Z,3.53
2022-08-25T06:11:19.299Z,3.55
2022-08-25T06:13:45.895Z,3.15
2022-08-25T06:16:12.562Z,3.83
2022-08-25T06:18:39.348Z,3.20
2022-08-25T06:21:14.395Z,3.17
2022-08-25T06:23:41.359Z,3.90
2022-08-25T06:26:20.640Z,3.67
2022-08-25T06:28:51.854Z,3.67
2022-08-25T06:31:19.276Z,4.23
2022-08-25T06:33:46.672Z,3.33
2022-08-25T06:36:13.068Z,3.55
2022-08-25T06:38:39.530Z,3.60
2022-08-25T06:41:07.839Z,4.18
2022-08-25T06:43:34.607Z,4.43
2022-08-25T06:46:12.639Z,3.83
2022-08-25T06:48:39.594Z,3.30
2022-08-25T06:51:08.603Z,3.60
2022-08-25T06:53:37.109Z,3.53
2022-08-25T06:56:06.628Z,3.33
2022-08-25T06:58:33.805Z,3.58
2022-08-25T07:01:20.200Z,3.00
2022-08-25T07:03:47.695Z,3.40
2022-08-25T07:06:18.365Z,3.55
2022-08-25T07:08:46.214Z,2.93
2022-08-25T07:11:16.579Z,2.65
2022-08-25T07:13:44.998Z,2.20
2022-08-25T07:16:11.651Z,2.55
2022-08-25T07:18:38.075Z,2.33
2022-08-25T07:21:04.471Z,2.07
2022-08-25T07:23:30.840Z,2.30
2022-08-25T07:25:57.392Z,1.88
2022-08-25T07:28:24.015Z,2.08
2022-08-25T07:30:52.167Z,2.42
2022-08-25T07:33:18.870Z,2.40
2022-08-25T07:35:45.708Z,2.40
2022-08-25T07:41:03.642Z,1.80
2022-08-25T07:43:30.044Z,2.00
2022-08-25T07:45:56.391Z,2.37
2022-08-25T07:48:22.795Z,1.52
2022-08-25T07:50:49.577Z,2.00
2022-08-25T07:53:17.250Z,2.00
2022-08-25T07:55:45.156Z,2.00
2022-08-25T07:58:13.772Z,2.40
2022-08-25T08:00:40.718Z,2.40
2022-08-25T08:03:12.820Z,1.90
2022-08-25T08:05:46.963Z,2.17
2022-08-25T08:08:15.866Z,2.17
2022-08-25T08:11:02.759Z,2.33
2022-08-25T08:13:29.063Z,1.90
2022-08-25T08:15:55.763Z,2.63
2022-08-25T08:18:22.203Z,2.67
2022-08-25T08:20:49.172Z,2.42
2022-08-25T08:23:16.811Z,2.33
2022-08-25T08:25:43.167Z,2.30
2022-08-25T08:28:10.901Z,1.60
2022-08-25T08:30:37.599Z,2.38
2022-08-25T08:33:12.809Z,2.97
2022-08-25T08:35:42.435Z,2.23
2022-08-25T08:38:14.925Z,2.40
2022-08-25T08:42:07.697Z,1.70
2022-08-25T08:44:35.123Z,2.20
2022-08-25T08:47:10.716Z,2.55
2022-08-25T08:49:49.527Z,2.80
2022-08-25T08:52:19.136Z,1.85
2022-08-25T08:54:53.036Z,2.15
2022-08-25T08:57:24.762Z,2.45
2022-08-25T08:59:59.739Z,2.53
2022-08-25T09:02:39.208Z,2.93
2022-08-25T09:05:20.541Z,2.88
2022-08-25T09:07:56.065Z,3.25
2022-08-25T09:10:24.356Z,2.30
2022-08-25T09:13:01.292Z,2.70
2022-08-25T09:16:09.696Z,2.60
2022-08-25T09:19:00.834Z,3.33
2022-08-25T09:21:33.946Z,2.80
2022-08-25T09:24:09.474Z,2.42
2022-08-25T09:26:53.394Z,3.47
2022-08-25T09:29:25.459Z,2.50
2022-08-25T09:31:57.819Z,2.10
2022-08-25T09:34:31.883Z,3.10
2022-08-25T09:36:59.023Z,2.42
2022-08-25T09:39:25.395Z,2.58
2022-08-25T09:41:56.260Z,2.90
2022-08-25T09:44:41.310Z,3.13
2022-08-25T09:47:17.487Z,3.03
2022-08-25T09:49:49.050Z,2.78
2022-08-25T09:52:35.287Z,2.90
2022-08-25T09:55:25.521Z,2.87
2022-08-25T09:57:56.634Z,2.20
2022-08-25T10:00:28.727Z,2.78
2022-08-25T10:03:22.615Z,2.83
2022-08-25T10:06:13.239Z,3.28
2022-08-25T10:08:40.084Z,2.90
2022-08-25T10:11:14.620Z,2.55
2022-08-25T10:13:51.478Z,2.67
2022-08-25T10:16:30.825Z,2.90
2022-08-25T10:19:13.158Z,2.35
2022-08-25T10:21:41.671Z,2.77
2022-08-25T10:24:11.306Z,2.38
2022-08-25T10:26:59.660Z,2.60
2022-08-25T10:29:54.370Z,2.55
2022-08-25T10:32:46.107Z,1.98
2022-08-25T10:35:14.364Z,3.10
2022-08-25T10:38:03.101Z,2.28
2022-08-25T10:40:57.131Z,2.78
2022-08-25T10:43:38.402Z,2.67
2022-08-25T10:46:30.073Z,3.15
2022-08-25T10:49:29.218Z,3.33
2022-08-25T10:52:05.245Z,2.03
2022-08-25T10:54:49.362Z,2.38
2022-08-25T10:57:36.419Z,2.30
2022-08-25T11:00:15.830Z,2.22
2022-08-25T11:03:01.100Z,2.23
2022-08-25T11:05:40.074Z,2.70
2022-08-25T11:08:47.566Z,2.17
2022-08-25T11:11:31.519Z,2.42
2022-08-25T11:14:11.109Z,2.67
2022-08-25T11:16:59.289Z,2.40
2022-08-25T11:19:35.735Z,2.00
2022-08-25T11:22:32.730Z,2.53
2022-08-25T11:25:26.142Z,2.63
2022-08-25T11:28:03.356Z,3.00
2022-08-25T11:30:30.293Z,2.70
2022-08-25T11:32:57.757Z,2.75
2022-08-25T11:35:35.535Z,2.25
2022-08-25T11:38:22.179Z,2.33
2022-08-25T11:41:00.745Z,2.60
2022-08-25T11:43:45.558Z,2.57
2022-08-25T11:46:27.680Z,2.17
2022-08-25T11:49:19.902Z,2.20
2022-08-25T11:51:50.782Z,2.63
2022-08-25T11:54:25.005Z,2.33
2022-08-25T11:57:04.106Z,2.77
2022-08-25T11:59:52.284Z,3.40
2022-08-25T12:02:36.386Z,2.33
2022-08-25T12:05:25.903Z,2.53
2022-08-25T12:08:12.216Z,2.35
2022-08-25T12:10:59.038Z,3.10
2022-08-25T12:13:25.593Z,2.25
2022-08-25T12:15:51.864Z,2.67
2022-08-25T12:18:24.414Z,2.30
2022-08-25T12:20:53.719Z,2.72
2022-08-25T12:23:44.659Z,2.47
2022-08-25T12:26:26.000Z,2.50
2022-08-25T12:29:03.213Z,1.65
2022-08-25T12:32:12.295Z,2.00
2022-08-25T12:35:10.388Z,2.08
2022-08-25T12:38:14.378Z,1.83
2022-08-25T12:40:43.942Z,2.38
2022-08-25T12:43:21.758Z,2.28
2022-08-25T12:45:53.451Z,1.40
2022-08-25T12:48:28.700Z,2.08
2022-08-25T12:51:08.331Z,2.00
2022-08-25T12:53:40.096Z,1.48
2022-08-25T12:56:40.873Z,1.83
2022-08-25T12:59:24.998Z,2.80
2022-08-25T13:02:06.863Z,2.05
2022-08-25T13:04:41.670Z,1.97
2022-08-25T13:07:21.702Z,2.60
2022-08-25T13:10:14.419Z,2.20
2022-08-25T13:13:01.000Z,1.40
2022-08-25T13:15:35.474Z,1.63
2022-08-25T13:18:19.443Z,1.23
2022-08-25T13:20:48.806Z,1.45
2022-08-25T13:23:19.930Z,1.90
2022-08-25T13:25:50.180Z,1.92
2022-08-25T13:28:33.535Z,1.52
2022-08-25T13:31:16.166Z,1.30
2022-08-25T13:33:54.925Z,1.35
2022-08-25T13:36:42.265Z,1.15
2022-08-25T13:39:19.917Z,1.17
2022-08-25T13:42:04.960Z,1.25
2022-08-25T13:44:36.414Z,1.40
2022-08-25T13:47:13.043Z,1.17
2022-08-25T13:49:42.618Z,1.70
2022-08-25T13:52:19.039Z,1.52
2022-08-25T13:54:59.539Z,1.55
2022-08-25T13:57:30.321Z,1.63
2022-08-25T14:00:01.539Z,1.13
2022-08-25T14:02:50.806Z,1.45
2022-08-25T14:05:32.306Z,1.52
2022-08-25T14:08:16.212Z,1.45
2022-08-25T14:11:07.707Z,8.37
2022-08-25T14:13:45.404Z,3.22
2022-08-25T14:16:20.293Z,2.97
2022-08-25T14:18:58.827Z,1.75
2022-08-25T14:21:28.174Z,7.63
2022-08-25T14:23:56.078Z,2.33
2022-08-25T14:26:22.934Z,1.48
2022-08-25T14:28:50.028Z,1.42
2022-08-25T14:31:31.664Z,1.58
2022-08-25T14:34:03.133Z,5.75
2022-08-25T14:36:31.253Z,1.30
2022-08-25T14:38:57.660Z,1.70
2022-08-25T14:41:25.408Z,0.93
2022-08-25T14:43:52.383Z,1.40
2022-08-25T14:46:25.340Z,1.60
2022-08-25T14:48:59.424Z,1.40
2022-08-25T14:51:27.794Z,1.30
2022-08-25T14:54:00.471Z,1.30
2022-08-25T14:56:27.690Z,1.73
2022-08-25T14:58:55.644Z,1.45
2022-08-25T15:01:28.961Z,1.13
2022-08-25T15:04:03.334Z,1.20
2022-08-25T15:06:30.207Z,0.90
2022-08-25T15:09:10.762Z,1.35
2022-08-25T15:11:50.797Z,1.33
2022-08-25T15:14:19.271Z,1.43
2022-08-25T15:16:56.981Z,1.20
2022-08-25T15:19:26.926Z,1.35
2022-08-25T15:21:54.708Z,1.23
2022-08-25T15:24:25.608Z,1.40
2022-08-25T15:29:29.594Z,1.02
2022-08-25T15:31:57.132Z,0.82
2022-08-25T15:34:24.654Z,1.40
2022-08-25T15:36:51.511Z,1.83
2022-08-25T15:39:19.153Z,1.37
2022-08-25T15:41:49.296Z,1.70
2022-08-25T15:44:16.162Z,2.25
2022-08-25T15:46:49.526Z,1.23
2022-08-25T15:49:20.467Z,1.20
2022-08-25T15:51:50.599Z,1.60
2022-08-25T15:54:17.025Z,1.25
2022-08-25T15:56:44.074Z,0.90
2022-08-25T15:59:10.412Z,1.30
2022-08-25T16:01:37.068Z,1.08
2022-08-25T16:04:03.663Z,1.27
2022-08-25T16:06:30.275Z,1.05
2022-08-25T16:08:56.772Z,1.38
2022-08-25T16:11:26.450Z,1.50
2022-08-25T16:13:55.740Z,1.20
2022-08-25T16:16:24.492Z,1.63
2022-08-25T16:18:52.019Z,1.40
2022-08-25T16:21:30.614Z,1.20
2022-08-25T16:24:01.883Z,1.45
2022-08-25T16:26:30.957Z,1.30
2022-08-25T16:28:57.955Z,1.50
2022-08-25T16:31:24.957Z,1.00
2022-08-25T16:33:54.734Z,1.40
2022-08-25T16:36:27.134Z,1.60
2022-08-25T16:38:56.383Z,1.40
2022-08-25T16:41:25.536Z,1.60
2022-08-25T16:43:52.821Z,1.35
2022-08-25T16:46:21.493Z,2.28
2022-08-25T16:48:50.418Z,1.65
2022-08-25T16:51:22.607Z,1.50
2022-08-25T16:54:10.501Z,2.10
2022-08-25T16:56:42.092Z,1.50
2022-08-25T16:59:11.711Z,1.60
2022-08-25T17:01:40.887Z,1.42
2022-08-25T17:04:09.668Z,2.05
2022-08-25T17:06:40.100Z,1.93
2022-08-25T17:09:08.118Z,2.30
2022-08-25T17:11:42.827Z,1.02
2022-08-25T17:14:11.056Z,1.75
2022-08-25T17:16:37.917Z,2.30
2022-08-25T17:19:07.672Z,1.73
2022-08-25T17:21:45.063Z,1.55
2022-08-25T17:24:12.474Z,1.05
2022-08-25T17:26:41.878Z,1.38
2022-08-25T17:29:09.242Z,1.00
2022-08-25T17:31:39.446Z,2.00
2022-08-25T17:34:10.150Z,2.42
2022-08-25T17:36:37.907Z,2.25
2022-08-25T17:39:07.869Z,3.28
2022-08-25T17:41:34.678Z,3.25
2022-08-25T17:44:04.502Z,3.43
2022-08-25T17:46:31.281Z,3.53
2022-08-25T17:48:57.739Z,2.80
2022-08-25T17:51:25.030Z,3.10
2022-08-25T17:53:52.714Z,2.72
2022-08-25T17:56:22.924Z,3.47
2022-08-25T17:58:50.932Z,3.33
2022-08-25T18:01:26.542Z,2.60
2022-08-25T18:03:54.039Z,2.95
2022-08-25T18:06:22.219Z,3.83
2022-08-25T18:08:53.717Z,3.23
2022-08-25T18:11:25.179Z,3.30
2022-08-25T18:13:53.549Z,2.67
2022-08-25T18:16:21.339Z,2.38
2022-08-25T18:18:48.474Z,3.47
2022-08-25T18:21:16.886Z,3.27
2022-08-25T18:23:43.575Z,3.40
2022-08-25T18:26:12.840Z,2.53
2022-08-25T18:28:39.765Z,3.03
2022-08-25T18:31:06.265Z,2.75
2022-08-25T18:33:33.992Z,3.37
2022-08-25T18:36:02.105Z,3.40
2022-08-25T18:38:47.477Z,2.97
2022-08-25T18:41:13.875Z,4.20
2022-08-25T18:43:40.690Z,3.88
2022-08-25T18:46:08.171Z,3.50
2022-08-25T18:48:34.769Z,3.28
2022-08-25T18:51:01.416Z,4.15
2022-08-25T18:53:37.188Z,3.67
2022-08-25T18:56:16.231Z,4.68
2022-08-25T18:58:42.598Z,4.00
2022-08-25T19:01:13.105Z,5.25
2022-08-25T19:03:39.507Z,4.15
2022-08-25T19:06:06.374Z,5.32
2022-08-25T19:08:32.803Z,5.70
2022-08-25T19:10:59.242Z,5.67
2022-08-25T19:13:25.627Z,5.70
2022-08-25T19:15:52.538Z,7.82
2022-08-25T19:18:28.916Z,7.72
2022-08-25T19:20:55.537Z,10.30
2022-08-25T19:23:21.895Z,10.77
2022-08-25T19:25:48.271Z,10.68
2022-08-25T19:28:14.739Z,17.05
2022-08-25T19:30:49.992Z,12.85
2022-08-25T19:33:42.270Z,14.65
2022-08-25T19:36:08.764Z,17.63
2022-08-25T19:38:36.754Z,18.80
2022-08-25T19:41:10.427Z,18.83
2022-08-25T19:43:50.626Z,19.30
2022-08-25T19:46:32.231Z,18.98
2022-08-25T19:49:06.320Z,23.50
2022-08-25T19:51:34.325Z,20.40
2022-08-25T19:54:02.891Z,22.17
2022-08-25T19:56:30.929Z,23.15
2022-08-25T19:58:58.598Z,25.13
2022-08-25T20:01:25.015Z,23.83
2022-08-25T20:03:52.060Z,25.88
2022-08-25T20:06:18.963Z,25.65
2022-08-25T20:08:45.338Z,24.88
2022-08-25T20:11:11.740Z,23.63
2022-08-25T20:13:38.115Z,23.50
2022-08-25T20:16:05.593Z,26.38
2022-08-25T20:18:32.422Z,20.98
2022-08-25T20:20:58.755Z,20.92
2022-08-25T20:23:43.943Z,23.50
2022-08-25T20:26:10.307Z,24.07
2022-08-25T20:28:36.732Z,21.23
2022-08-25T20:31:03.114Z,22.30
2022-08-25T20:33:29.479Z,19.55
2022-08-25T20:35:55.906Z,17.17
2022-08-25T20:38:22.617Z,18.23
2022-08-25T20:40:49.251Z,16.85
2022-08-25T20:43:15.654Z,17.75
2022-08-25T20:45:42.039Z,17.02
2022-08-25T20:48:09.388Z,16.30
2022-08-25T20:50:38.359Z,15.57
2022-08-25T20:53:05.649Z,16.58
2022-08-25T20:55:42.288Z,15.30
2022-08-25T20:58:08.997Z,15.50
2022-08-25T21:00:36.185Z,14.77
2022-08-25T21:03:02.598Z,14.70
2022-08-25T21:05:28.959Z,14.77
2022-08-25T21:07:55.282Z,13.77
2022-08-25T21:10:21.754Z,12.35
2022-08-25T21:12:49.346Z,12.57
2022-08-25T21:15:19.627Z,11.93
2022-08-25T21:17:50.548Z,12.80
2022-08-25T21:20:17.155Z,12.35
2022-08-25T21:22:43.514Z,11.93
2022-08-25T21:25:10.362Z,13.48
2022-08-25T21:27:36.761Z,13.57
2022-08-25T21:30:06.405Z,12.02
2022-08-25T21:32:34.111Z,11.70
2022-08-25T21:35:00.631Z,12.30
2022-08-25T21:37:27.641Z,12.27
2022-08-25T21:39:54.703Z,12.40
2022-08-25T21:42:22.276Z,11.50
2022-08-25T21:44:50.374Z,10.25
2022-08-25T21:47:21.311Z,10.65
2022-08-25T21:49:48.451Z,9.57
2022-08-25T21:52:15.371Z,9.43
2022-08-25T21:54:41.866Z,9.38
2022-08-25T21:57:08.207Z,8.75
2022-08-25T21:59:40.174Z,8.40
2022-08-25T22:02:09.202Z,6.82
2022-08-25T22:04:38.310Z,7.83
2022-08-25T22:07:06.230Z,6.30
2022-08-25T22:09:32.651Z,6.47
2022-08-25T22:11:59.325Z,6.88
2022-08-25T22:14:26.270Z,5.97
2022-08-25T22:16:53.677Z,6.37
2022-08-25T22:19:21.401Z,6.85
2022-08-25T22:21:49.856Z,6.53
2022-08-25T22:24:17.221Z,5.45
2022-08-25T22:26:43.626Z,5.97
2022-08-25T22:29:14.312Z,5.63
2022-08-25T22:31:53.041Z,5.43
2022-08-25T22:34:20.090Z,5.40
2022-08-25T22:36:59.386Z,5.00
2022-08-25T22:39:26.487Z,4.97
2022-08-25T22:41:52.838Z,4.43
2022-08-25T22:44:19.176Z,3.95
2022-08-25T22:46:45.532Z,4.25
2022-08-25T22:49:12.006Z,4.32
2022-08-25T22:51:38.419Z,5.22
2022-08-25T22:54:05.119Z,3.03
2022-08-25T22:56:37.382Z,3.67
2022-08-25T22:59:07.321Z,3.20
2022-08-25T23:01:34.710Z,3.22
2022-08-25T23:04:03.191Z,2.70
2022-08-25T23:06:30.638Z,2.50
2022-08-25T23:08:57.445Z,2.30
2022-08-25T23:11:24.760Z,2.30
2022-08-25T23:13:55.260Z,2.53
2022-08-25T23:16:22.142Z,1.98
2022-08-25T23:18:48.558Z,2.10
2022-08-25T23:21:35.123Z,1.17
2022-08-25T23:24:05.398Z,1.00
2022-08-25T23:26:33.427Z,1.00
2022-08-25T23:29:00.157Z,0.73
2022-08-25T23:31:26.702Z,1.10
2022-08-25T23:33:54.432Z,1.15
2022-08-25T23:36:21.727Z,0.80
2022-08-25T23:38:51.595Z,0.95
2022-08-25T23:41:20.977Z,1.15
2022-08-25T23:43:49.285Z,0.63
2022-08-25T23:46:18.038Z,1.50
2022-08-25T23:48:44.626Z,1.40
2022-08-25T23:51:10.995Z,1.15
2022-08-25T23:53:37.571Z,1.33
2022-08-25T23:56:05.718Z,2.03
2022-08-25T23:58:32.228Z,1.63
